sensor_id;sensor_type;location;lat;lon;timestamp;temperature;humidity
1337;DHT22;662;48.814;9.318;2023-02-22T00:00:33;8.80;58.70
1337;DHT22;662;48.814;9.318;2023-02-22T00:03:28;8.80;58.70
1337;DHT22;662;48.814;9.318;2023-02-22T00:06:01;8.70;58.80
1337;DHT22;662;48.814;9.318;2023-02-22T00:08:34;8.70;58.80
1337;DHT22;662;48.814;9.318;2023-02-22T00:11:07;8.70;58.90
1337;DHT22;662;48.814;9.318;2023-02-22T00:13:34;8.70;59.00
1337;DHT22;662;48.814;9.318;2023-02-22T00:16:00;8.60;59.00
1337;DHT22;662;48.814;9.318;2023-02-22T00:18:28;8.70;59.10
1337;DHT22;662;48.814;9.318;2023-02-22T00:20:58;8.60;59.10
1337;DHT22;662;48.814;9.318;2023-02-22T00:23:26;8.60;59.10
1337;DHT22;662;48.814;9.318;2023-02-22T00:25:54;8.60;59.20
1337;DHT22;662;48.814;9.318;2023-02-22T00:28:20;8.60;59.20
1337;DHT22;662;48.814;9.318;2023-02-22T00:30:45;8.60;59.30
1337;DHT22;662;48.814;9.318;2023-02-22T00:33:13;8.60;59.40
1337;DHT22;662;48.814;9.318;2023-02-22T00:35:39;8.60;59.40
1337;DHT22;662;48.814;9.318;2023-02-22T00:38:06;8.50;59.40
1337;DHT22;662;48.814;9.318;2023-02-22T00:40:34;8.50;59.50
1337;DHT22;662;48.814;9.318;2023-02-22T00:43:02;8.40;59.60
1337;DHT22;662;48.814;9.318;2023-02-22T00:45:29;8.40;59.70
1337;DHT22;662;48.814;9.318;2023-02-22T00:47:55;8.40;59.70
1337;DHT22;662;48.814;9.318;2023-02-22T00:50:23;8.40;59.60
1337;DHT22;662;48.814;9.318;2023-02-22T00:52:49;8.30;59.50
1337;DHT22;662;48.814;9.318;2023-02-22T00:55:21;8.30;59.50
1337;DHT22;662;48.814;9.318;2023-02-22T00:57:47;8.30;59.40
1337;DHT22;662;48.814;9.318;2023-02-22T01:00:18;8.20;59.40
1337;DHT22;662;48.814;9.318;2023-02-22T01:02:45;8.20;59.30
1337;DHT22;662;48.814;9.318;2023-02-22T01:05:17;8.20;59.40
1337;DHT22;662;48.814;9.318;2023-02-22T01:07:42;8.20;59.60
1337;DHT22;662;48.814;9.318;2023-02-22T01:10:10;8.20;59.60
1337;DHT22;662;48.814;9.318;2023-02-22T01:12:36;8.20;59.70
1337;DHT22;662;48.814;9.318;2023-02-22T01:15:03;8.20;59.70
1337;DHT22;662;48.814;9.318;2023-02-22T01:17:30;8.20;59.80
1337;DHT22;662;48.814;9.318;2023-02-22T01:19:55;8.20;59.80
1337;DHT22;662;48.814;9.318;2023-02-22T01:22:22;8.10;59.70
1337;DHT22;662;48.814;9.318;2023-02-22T01:24:48;8.10;59.90
1337;DHT22;662;48.814;9.318;2023-02-22T01:27:15;8.00;60.10
1337;DHT22;662;48.814;9.318;2023-02-22T01:29:41;8.00;60.50
1337;DHT22;662;48.814;9.318;2023-02-22T01:32:08;7.90;60.70
1337;DHT22;662;48.814;9.318;2023-02-22T01:34:34;7.90;60.90
1337;DHT22;662;48.814;9.318;2023-02-22T01:37:00;7.80;61.10
1337;DHT22;662;48.814;9.318;2023-02-22T01:39:28;7.80;61.30
1337;DHT22;662;48.814;9.318;2023-02-22T01:41:54;7.80;61.60
1337;DHT22;662;48.814;9.318;2023-02-22T01:44:32;7.80;61.60
1337;DHT22;662;48.814;9.318;2023-02-22T01:47:00;7.70;61.70
1337;DHT22;662;48.814;9.318;2023-02-22T01:49:37;7.70;62.00
1337;DHT22;662;48.814;9.318;2023-02-22T01:52:06;7.70;62.20
1337;DHT22;662;48.814;9.318;2023-02-22T01:54:48;7.70;62.20
1337;DHT22;662;48.814;9.318;2023-02-22T01:57:21;7.70;62.10
1337;DHT22;662;48.814;9.318;2023-02-22T01:59:50;7.70;61.90
1337;DHT22;662;48.814;9.318;2023-02-22T02:02:18;7.80;61.80
1337;DHT22;662;48.814;9.318;2023-02-22T02:04:46;7.70;61.70
1337;DHT22;662;48.814;9.318;2023-02-22T02:07:16;7.70;61.70
1337;DHT22;662;48.814;9.318;2023-02-22T02:09:53;7.70;61.70
1337;DHT22;662;48.814;9.318;2023-02-22T02:12:23;7.70;61.70
1337;DHT22;662;48.814;9.318;2023-02-22T02:14:50;7.80;61.80
1337;DHT22;662;48.814;9.318;2023-02-22T02:17:18;7.80;61.70
1337;DHT22;662;48.814;9.318;2023-02-22T02:20:08;7.80;61.70
1337;DHT22;662;48.814;9.318;2023-02-22T02:28:57;7.70;61.60
1337;DHT22;662;48.814;9.318;2023-02-22T02:42:54;7.70;62.30
1337;DHT22;662;48.814;9.318;2023-02-22T02:45:28;7.70;62.40
1337;DHT22;662;48.814;9.318;2023-02-22T02:47:56;7.70;62.50
1337;DHT22;662;48.814;9.318;2023-02-22T02:50:33;7.70;62.50
1337;DHT22;662;48.814;9.318;2023-02-22T02:53:04;7.70;62.50
1337;DHT22;662;48.814;9.318;2023-02-22T02:55:36;7.70;62.30
1337;DHT22;662;48.814;9.318;2023-02-22T02:58:06;7.70;62.20
1337;DHT22;662;48.814;9.318;2023-02-22T03:00:38;7.70;62.20
1337;DHT22;662;48.814;9.318;2023-02-22T03:06:09;7.70;61.90
1337;DHT22;662;48.814;9.318;2023-02-22T03:11:28;7.70;61.80
1337;DHT22;662;48.814;9.318;2023-02-22T03:19:55;7.70;61.80
1337;DHT22;662;48.814;9.318;2023-02-22T03:22:30;7.70;61.70
1337;DHT22;662;48.814;9.318;2023-02-22T03:25:24;7.70;61.70
1337;DHT22;662;48.814;9.318;2023-02-22T03:27:57;7.70;61.70
1337;DHT22;662;48.814;9.318;2023-02-22T03:30:53;7.60;61.70
1337;DHT22;662;48.814;9.318;2023-02-22T03:33:26;7.60;61.60
1337;DHT22;662;48.814;9.318;2023-02-22T03:36:02;7.60;61.60
1337;DHT22;662;48.814;9.318;2023-02-22T03:38:31;7.60;61.60
1337;DHT22;662;48.814;9.318;2023-02-22T03:41:01;7.60;61.60
1337;DHT22;662;48.814;9.318;2023-02-22T03:43:35;7.60;61.60
1337;DHT22;662;48.814;9.318;2023-02-22T03:46:03;7.60;61.70
1337;DHT22;662;48.814;9.318;2023-02-22T03:48:52;7.60;61.80
1337;DHT22;662;48.814;9.318;2023-02-22T03:51:21;7.60;62.00
1337;DHT22;662;48.814;9.318;2023-02-22T03:53:47;7.50;62.10
1337;DHT22;662;48.814;9.318;2023-02-22T03:56:19;7.60;62.40
1337;DHT22;662;48.814;9.318;2023-02-22T03:58:46;7.60;62.30
1337;DHT22;662;48.814;9.318;2023-02-22T04:01:13;7.60;62.30
1337;DHT22;662;48.814;9.318;2023-02-22T04:03:39;7.60;62.30
1337;DHT22;662;48.814;9.318;2023-02-22T04:06:07;7.60;62.20
1337;DHT22;662;48.814;9.318;2023-02-22T04:08:34;7.50;62.80
1337;DHT22;662;48.814;9.318;2023-02-22T04:11:00;7.50;62.00
1337;DHT22;662;48.814;9.318;2023-02-22T04:13:26;7.50;62.00
1337;DHT22;662;48.814;9.318;2023-02-22T04:15:52;7.50;62.00
1337;DHT22;662;48.814;9.318;2023-02-22T04:18:18;7.50;62.00
1337;DHT22;662;48.814;9.318;2023-02-22T04:20:43;7.50;62.00
1337;DHT22;662;48.814;9.318;2023-02-22T04:23:09;7.40;61.90
1337;DHT22;662;48.814;9.318;2023-02-22T04:25:35;7.50;62.00
1337;DHT22;662;48.814;9.318;2023-02-22T04:28:01;7.40;61.90
1337;DHT22;662;48.814;9.318;2023-02-22T04:30:27;7.40;62.00
1337;DHT22;662;48.814;9.318;2023-02-22T04:32:54;7.40;62.10
1337;DHT22;662;48.814;9.318;2023-02-22T04:35:20;7.50;62.30
1337;DHT22;662;48.814;9.318;2023-02-22T04:37:46;7.40;62.10
1337;DHT22;662;48.814;9.318;2023-02-22T04:40:11;7.40;62.00
1337;DHT22;662;48.814;9.318;2023-02-22T04:42:38;7.50;62.00
1337;DHT22;662;48.814;9.318;2023-02-22T04:45:06;7.40;61.90
1337;DHT22;662;48.814;9.318;2023-02-22T04:47:33;7.40;61.90
1337;DHT22;662;48.814;9.318;2023-02-22T04:49:58;7.40;61.90
1337;DHT22;662;48.814;9.318;2023-02-22T04:52:25;7.40;61.90
1337;DHT22;662;48.814;9.318;2023-02-22T04:54:51;7.40;61.80
1337;DHT22;662;48.814;9.318;2023-02-22T04:57:16;7.30;61.70
1337;DHT22;662;48.814;9.318;2023-02-22T04:59:42;7.30;61.60
1337;DHT22;662;48.814;9.318;2023-02-22T05:02:08;7.30;61.60
1337;DHT22;662;48.814;9.318;2023-02-22T05:04:33;7.30;61.70
1337;DHT22;662;48.814;9.318;2023-02-22T05:07:00;7.30;61.70
1337;DHT22;662;48.814;9.318;2023-02-22T05:09:25;7.20;61.60
1337;DHT22;662;48.814;9.318;2023-02-22T05:11:51;7.20;61.60
1337;DHT22;662;48.814;9.318;2023-02-22T05:14:17;7.20;61.70
1337;DHT22;662;48.814;9.318;2023-02-22T05:16:44;7.20;61.70
1337;DHT22;662;48.814;9.318;2023-02-22T05:19:10;7.10;61.60
1337;DHT22;662;48.814;9.318;2023-02-22T05:21:37;7.10;61.80
1337;DHT22;662;48.814;9.318;2023-02-22T05:24:04;7.10;61.90
1337;DHT22;662;48.814;9.318;2023-02-22T05:26:30;7.10;62.00
1337;DHT22;662;48.814;9.318;2023-02-22T05:28:56;7.10;62.00
1337;DHT22;662;48.814;9.318;2023-02-22T05:31:21;7.10;62.10
1337;DHT22;662;48.814;9.318;2023-02-22T05:33:47;7.10;62.20
1337;DHT22;662;48.814;9.318;2023-02-22T05:36:13;7.10;62.20
1337;DHT22;662;48.814;9.318;2023-02-22T05:38:38;7.10;62.20
1337;DHT22;662;48.814;9.318;2023-02-22T05:41:09;7.10;62.20
1337;DHT22;662;48.814;9.318;2023-02-22T05:43:35;7.10;62.30
1337;DHT22;662;48.814;9.318;2023-02-22T05:46:01;7.00;62.20
1337;DHT22;662;48.814;9.318;2023-02-22T05:48:27;7.00;62.20
1337;DHT22;662;48.814;9.318;2023-02-22T05:50:52;7.00;62.20
1337;DHT22;662;48.814;9.318;2023-02-22T05:53:18;7.00;62.20
1337;DHT22;662;48.814;9.318;2023-02-22T05:55:43;7.00;62.20
1337;DHT22;662;48.814;9.318;2023-02-22T05:58:09;7.00;62.10
1337;DHT22;662;48.814;9.318;2023-02-22T06:00:35;7.00;62.80
1337;DHT22;662;48.814;9.318;2023-02-22T06:03:03;7.00;62.10
1337;DHT22;662;48.814;9.318;2023-02-22T06:05:30;6.90;62.00
1337;DHT22;662;48.814;9.318;2023-02-22T06:07:57;6.90;62.10
1337;DHT22;662;48.814;9.318;2023-02-22T06:10:23;6.90;62.10
1337;DHT22;662;48.814;9.318;2023-02-22T06:12:49;6.90;62.20
1337;DHT22;662;48.814;9.318;2023-02-22T06:15:17;6.90;62.20
1337;DHT22;662;48.814;9.318;2023-02-22T06:17:43;6.80;62.20
1337;DHT22;662;48.814;9.318;2023-02-22T06:20:13;6.80;62.20
1337;DHT22;662;48.814;9.318;2023-02-22T06:22:38;6.80;62.30
1337;DHT22;662;48.814;9.318;2023-02-22T06:25:08;6.80;62.40
1337;DHT22;662;48.814;9.318;2023-02-22T06:27:34;6.80;62.50
1337;DHT22;662;48.814;9.318;2023-02-22T06:30:00;6.80;62.50
1337;DHT22;662;48.814;9.318;2023-02-22T06:32:26;6.70;62.30
1337;DHT22;662;48.814;9.318;2023-02-22T06:34:52;6.80;62.60
1337;DHT22;662;48.814;9.318;2023-02-22T06:37:21;6.70;62.50
1337;DHT22;662;48.814;9.318;2023-02-22T06:39:46;6.70;62.50
1337;DHT22;662;48.814;9.318;2023-02-22T06:42:12;6.70;62.60
1337;DHT22;662;48.814;9.318;2023-02-22T06:44:40;6.70;62.60
1337;DHT22;662;48.814;9.318;2023-02-22T06:47:06;6.70;62.90
1337;DHT22;662;48.814;9.318;2023-02-22T06:49:32;6.70;62.90
1337;DHT22;662;48.814;9.318;2023-02-22T06:51:58;6.80;63.00
1337;DHT22;662;48.814;9.318;2023-02-22T06:54:23;6.80;62.90
1337;DHT22;662;48.814;9.318;2023-02-22T06:56:49;6.80;62.90
1337;DHT22;662;48.814;9.318;2023-02-22T06:59:15;6.80;63.00
1337;DHT22;662;48.814;9.318;2023-02-22T07:01:41;6.90;63.20
1337;DHT22;662;48.814;9.318;2023-02-22T07:04:08;6.90;63.40
1337;DHT22;662;48.814;9.318;2023-02-22T07:06:33;6.90;63.50
1337;DHT22;662;48.814;9.318;2023-02-22T07:09:00;7.00;63.50
1337;DHT22;662;48.814;9.318;2023-02-22T07:11:26;7.00;63.50
1337;DHT22;662;48.814;9.318;2023-02-22T07:13:51;7.10;63.50
1337;DHT22;662;48.814;9.318;2023-02-22T07:16:17;7.20;63.60
1337;DHT22;662;48.814;9.318;2023-02-22T07:18:43;7.30;63.60
1337;DHT22;662;48.814;9.318;2023-02-22T07:21:08;7.30;63.40
1337;DHT22;662;48.814;9.318;2023-02-22T07:23:35;7.40;63.30
1337;DHT22;662;48.814;9.318;2023-02-22T07:26:01;7.50;63.40
1337;DHT22;662;48.814;9.318;2023-02-22T07:28:27;7.60;63.20
1337;DHT22;662;48.814;9.318;2023-02-22T07:30:52;7.70;63.00
1337;DHT22;662;48.814;9.318;2023-02-22T07:33:18;7.80;63.00
1337;DHT22;662;48.814;9.318;2023-02-22T07:35:46;7.80;62.80
1337;DHT22;662;48.814;9.318;2023-02-22T07:38:13;7.90;62.90
1337;DHT22;662;48.814;9.318;2023-02-22T07:40:40;8.00;63.00
1337;DHT22;662;48.814;9.318;2023-02-22T07:43:20;8.00;62.80
1337;DHT22;662;48.814;9.318;2023-02-22T07:45:48;8.10;62.70
1337;DHT22;662;48.814;9.318;2023-02-22T07:48:14;8.20;62.70
1337;DHT22;662;48.814;9.318;2023-02-22T07:50:41;8.20;62.50
1337;DHT22;662;48.814;9.318;2023-02-22T07:53:11;8.30;62.30
1337;DHT22;662;48.814;9.318;2023-02-22T07:55:37;8.40;62.30
1337;DHT22;662;48.814;9.318;2023-02-22T07:58:05;8.50;62.00
1337;DHT22;662;48.814;9.318;2023-02-22T08:00:38;8.50;61.80
1337;DHT22;662;48.814;9.318;2023-02-22T08:03:09;8.60;61.80
1337;DHT22;662;48.814;9.318;2023-02-22T08:05:36;8.70;61.70
1337;DHT22;662;48.814;9.318;2023-02-22T08:08:03;8.80;61.60
1337;DHT22;662;48.814;9.318;2023-02-22T08:10:30;8.90;61.40
1337;DHT22;662;48.814;9.318;2023-02-22T08:12:56;9.00;61.20
1337;DHT22;662;48.814;9.318;2023-02-22T08:15:26;9.20;61.30
1337;DHT22;662;48.814;9.318;2023-02-22T08:17:56;9.30;61.30
1337;DHT22;662;48.814;9.318;2023-02-22T08:20:23;9.40;61.30
1337;DHT22;662;48.814;9.318;2023-02-22T08:22:50;9.50;61.00
1337;DHT22;662;48.814;9.318;2023-02-22T08:25:17;9.60;60.70
1337;DHT22;662;48.814;9.318;2023-02-22T08:27:43;9.70;60.40
1337;DHT22;662;48.814;9.318;2023-02-22T08:30:19;9.90;60.40
1337;DHT22;662;48.814;9.318;2023-02-22T08:32:46;10.20;59.70
1337;DHT22;662;48.814;9.318;2023-02-22T08:35:13;10.60;59.70
1337;DHT22;662;48.814;9.318;2023-02-22T08:37:47;11.20;59.40
1337;DHT22;662;48.814;9.318;2023-02-22T08:40:15;12.10;58.30
1337;DHT22;662;48.814;9.318;2023-02-22T08:42:42;12.90;57.40
1337;DHT22;662;48.814;9.318;2023-02-22T08:45:08;13.90;55.30
1337;DHT22;662;48.814;9.318;2023-02-22T08:47:34;14.80;53.90
1337;DHT22;662;48.814;9.318;2023-02-22T08:50:00;15.60;52.30
1337;DHT22;662;48.814;9.318;2023-02-22T08:52:25;16.20;51.00
1337;DHT22;662;48.814;9.318;2023-02-22T08:54:51;16.70;50.10
1337;DHT22;662;48.814;9.318;2023-02-22T08:57:17;17.20;49.20
1337;DHT22;662;48.814;9.318;2023-02-22T08:59:43;17.60;48.00
1337;DHT22;662;48.814;9.318;2023-02-22T09:02:19;18.20;47.10
1337;DHT22;662;48.814;9.318;2023-02-22T09:04:46;19.00;45.70
1337;DHT22;662;48.814;9.318;2023-02-22T09:07:12;19.70;43.70
1337;DHT22;662;48.814;9.318;2023-02-22T09:09:37;19.90;42.40
1337;DHT22;662;48.814;9.318;2023-02-22T09:12:04;20.10;41.90
1337;DHT22;662;48.814;9.318;2023-02-22T09:14:29;20.20;41.80
1337;DHT22;662;48.814;9.318;2023-02-22T09:16:55;20.30;41.20
1337;DHT22;662;48.814;9.318;2023-02-22T09:19:21;20.30;40.80
1337;DHT22;662;48.814;9.318;2023-02-22T09:21:57;20.10;40.40
1337;DHT22;662;48.814;9.318;2023-02-22T09:24:24;19.50;40.50
1337;DHT22;662;48.814;9.318;2023-02-22T09:26:50;18.80;41.10
1337;DHT22;662;48.814;9.318;2023-02-22T09:29:24;18.20;41.10
1337;DHT22;662;48.814;9.318;2023-02-22T09:31:52;17.60;41.80
1337;DHT22;662;48.814;9.318;2023-02-22T09:34:18;17.10;42.50
1337;DHT22;662;48.814;9.318;2023-02-22T09:36:45;16.60;43.20
1337;DHT22;662;48.814;9.318;2023-02-22T09:39:12;16.30;44.00
1337;DHT22;662;48.814;9.318;2023-02-22T09:46:51;15.20;45.90
1337;DHT22;662;48.814;9.318;2023-02-22T09:49:22;15.00;46.40
1337;DHT22;662;48.814;9.318;2023-02-22T09:51:54;14.70;46.90
1337;DHT22;662;48.814;9.318;2023-02-22T09:54:34;14.50;47.40
1337;DHT22;662;48.814;9.318;2023-02-22T09:57:08;14.30;47.90
1337;DHT22;662;48.814;9.318;2023-02-22T10:00:03;14.20;48.30
1337;DHT22;662;48.814;9.318;2023-02-22T10:02:53;14.00;48.60
1337;DHT22;662;48.814;9.318;2023-02-22T10:05:30;13.90;49.00
1337;DHT22;662;48.814;9.318;2023-02-22T10:08:03;13.80;49.30
1337;DHT22;662;48.814;9.318;2023-02-22T10:10:35;13.80;49.50
1337;DHT22;662;48.814;9.318;2023-02-22T10:18:37;13.70;50.10
1337;DHT22;662;48.814;9.318;2023-02-22T10:26:48;13.60;50.50
1337;DHT22;662;48.814;9.318;2023-02-22T10:29:26;13.70;50.70
1337;DHT22;662;48.814;9.318;2023-02-22T10:31:59;13.70;50.90
1337;DHT22;662;48.814;9.318;2023-02-22T10:34:29;13.80;51.10
1337;DHT22;662;48.814;9.318;2023-02-22T10:37:02;13.80;51.10
1337;DHT22;662;48.814;9.318;2023-02-22T10:39:32;13.90;51.10
1337;DHT22;662;48.814;9.318;2023-02-22T10:42:00;13.90;51.00
1337;DHT22;662;48.814;9.318;2023-02-22T10:44:34;14.00;51.00
1337;DHT22;662;48.814;9.318;2023-02-22T10:47:01;14.00;51.00
1337;DHT22;662;48.814;9.318;2023-02-22T10:49:41;14.10;51.00
1337;DHT22;662;48.814;9.318;2023-02-22T10:52:34;14.20;50.70
1337;DHT22;662;48.814;9.318;2023-02-22T10:55:01;14.30;50.70
1337;DHT22;662;48.814;9.318;2023-02-22T10:57:32;14.40;50.70
1337;DHT22;662;48.814;9.318;2023-02-22T11:02:56;14.70;50.40
1337;DHT22;662;48.814;9.318;2023-02-22T11:08:13;14.90;50.30
1337;DHT22;662;48.814;9.318;2023-02-22T11:10:41;15.00;50.10
1337;DHT22;662;48.814;9.318;2023-02-22T11:15:42;15.20;49.90
1337;DHT22;662;48.814;9.318;2023-02-22T11:18:29;15.20;49.70
1337;DHT22;662;48.814;9.318;2023-02-22T11:21:01;15.30;49.50
1337;DHT22;662;48.814;9.318;2023-02-22T11:23:27;15.40;49.00
1337;DHT22;662;48.814;9.318;2023-02-22T11:26:06;15.50;48.70
1337;DHT22;662;48.814;9.318;2023-02-22T11:28:32;15.50;48.80
1337;DHT22;662;48.814;9.318;2023-02-22T11:31:13;15.60;48.90
1337;DHT22;662;48.814;9.318;2023-02-22T11:33:59;15.70;48.80
1337;DHT22;662;48.814;9.318;2023-02-22T11:36:51;15.90;48.80
1337;DHT22;662;48.814;9.318;2023-02-22T11:39:30;16.00;48.80
1337;DHT22;662;48.814;9.318;2023-02-22T11:42:22;16.10;48.50
1337;DHT22;662;48.814;9.318;2023-02-22T11:45:13;16.30;48.20
1337;DHT22;662;48.814;9.318;2023-02-22T11:48:18;16.50;48.00
1337;DHT22;662;48.814;9.318;2023-02-22T11:58:49;17.10;47.10
1337;DHT22;662;48.814;9.318;2023-02-22T12:01:42;17.20;46.80
1337;DHT22;662;48.814;9.318;2023-02-22T12:04:32;17.20;46.70
1337;DHT22;662;48.814;9.318;2023-02-22T12:12:47;17.10;46.60
1337;DHT22;662;48.814;9.318;2023-02-22T12:15:27;17.10;46.60
1337;DHT22;662;48.814;9.318;2023-02-22T12:18:02;17.30;46.50
1337;DHT22;662;48.814;9.318;2023-02-22T12:20:38;17.20;46.10
1337;DHT22;662;48.814;9.318;2023-02-22T12:23:32;17.20;46.10
1337;DHT22;662;48.814;9.318;2023-02-22T12:26:23;17.30;46.20
1337;DHT22;662;48.814;9.318;2023-02-22T12:36:55;18.40;45.10
1337;DHT22;662;48.814;9.318;2023-02-22T12:45:29;18.60;43.60
1337;DHT22;662;48.814;9.318;2023-02-22T12:50:41;18.20;43.30
1337;DHT22;662;48.814;9.318;2023-02-22T12:53:22;18.00;43.50
1337;DHT22;662;48.814;9.318;2023-02-22T12:55:53;17.90;43.60
1337;DHT22;662;48.814;9.318;2023-02-22T12:58:29;17.70;43.80
1337;DHT22;662;48.814;9.318;2023-02-22T13:01:06;17.60;44.30
1337;DHT22;662;48.814;9.318;2023-02-22T13:03:43;17.40;44.60
1337;DHT22;662;48.814;9.318;2023-02-22T13:06:39;17.30;45.00
1337;DHT22;662;48.814;9.318;2023-02-22T13:12:15;17.10;45.50
1337;DHT22;662;48.814;9.318;2023-02-22T13:20:29;16.80;46.10
1337;DHT22;662;48.814;9.318;2023-02-22T13:24:10;16.70;46.20
1337;DHT22;662;48.814;9.318;2023-02-22T13:26:27;16.70;46.50
1337;DHT22;662;48.814;9.318;2023-02-22T13:29:08;16.60;46.80
1337;DHT22;662;48.814;9.318;2023-02-22T13:31:41;16.60;46.90
1337;DHT22;662;48.814;9.318;2023-02-22T13:34:33;16.50;47.10
1337;DHT22;662;48.814;9.318;2023-02-22T13:52:02;20.00;44.00
1337;DHT22;662;48.814;9.318;2023-02-22T13:54:44;20.30;43.10
1337;DHT22;662;48.814;9.318;2023-02-22T13:57:25;20.60;42.40
1337;DHT22;662;48.814;9.318;2023-02-22T14:03:04;20.80;41.10
1337;DHT22;662;48.814;9.318;2023-02-22T14:08:04;20.80;41.00
1337;DHT22;662;48.814;9.318;2023-02-22T14:10:36;20.80;41.30
1337;DHT22;662;48.814;9.318;2023-02-22T14:13:06;20.80;41.30
1337;DHT22;662;48.814;9.318;2023-02-22T14:15:32;20.70;41.10
1337;DHT22;662;48.814;9.318;2023-02-22T14:18:00;20.60;41.10
1337;DHT22;662;48.814;9.318;2023-02-22T14:20:35;20.50;41.00
1337;DHT22;662;48.814;9.318;2023-02-22T14:23:25;20.40;41.30
1337;DHT22;662;48.814;9.318;2023-02-22T14:25:53;20.30;41.80
1337;DHT22;662;48.814;9.318;2023-02-22T14:28:56;20.40;42.10
1337;DHT22;662;48.814;9.318;2023-02-22T14:31:28;20.50;42.00
1337;DHT22;662;48.814;9.318;2023-02-22T14:34:05;20.50;42.00
1337;DHT22;662;48.814;9.318;2023-02-22T14:36:34;20.30;42.00
1337;DHT22;662;48.814;9.318;2023-02-22T14:41:37;19.90;42.20
1337;DHT22;662;48.814;9.318;2023-02-22T14:44:06;19.80;42.20
1337;DHT22;662;48.814;9.318;2023-02-22T14:46:40;19.80;42.30
1337;DHT22;662;48.814;9.318;2023-02-22T14:49:09;19.70;42.30
1337;DHT22;662;48.814;9.318;2023-02-22T14:51:49;19.70;42.60
1337;DHT22;662;48.814;9.318;2023-02-22T14:54:25;19.70;42.70
1337;DHT22;662;48.814;9.318;2023-02-22T14:57:17;19.60;42.80
1337;DHT22;662;48.814;9.318;2023-02-22T14:59:57;19.50;42.80
1337;DHT22;662;48.814;9.318;2023-02-22T15:02:25;19.40;42.90
1337;DHT22;662;48.814;9.318;2023-02-22T15:04:53;19.30;43.20
1337;DHT22;662;48.814;9.318;2023-02-22T15:07:24;19.00;43.10
1337;DHT22;662;48.814;9.318;2023-02-22T15:10:04;18.80;43.40
1337;DHT22;662;48.814;9.318;2023-02-22T15:12:30;18.60;43.70
1337;DHT22;662;48.814;9.318;2023-02-22T15:15:17;18.30;44.10
1337;DHT22;662;48.814;9.318;2023-02-22T15:17:53;18.10;44.60
1337;DHT22;662;48.814;9.318;2023-02-22T15:20:19;17.90;45.00
1337;DHT22;662;48.814;9.318;2023-02-22T15:22:45;17.70;45.50
1337;DHT22;662;48.814;9.318;2023-02-22T15:25:13;17.50;45.80
1337;DHT22;662;48.814;9.318;2023-02-22T15:27:39;17.40;46.20
1337;DHT22;662;48.814;9.318;2023-02-22T15:30:24;17.20;46.50
1337;DHT22;662;48.814;9.318;2023-02-22T15:32:51;17.10;46.80
1337;DHT22;662;48.814;9.318;2023-02-22T15:35:19;17.00;47.10
1337;DHT22;662;48.814;9.318;2023-02-22T15:40:31;16.70;47.80
1337;DHT22;662;48.814;9.318;2023-02-22T15:43:04;16.60;47.90
1337;DHT22;662;48.814;9.318;2023-02-22T15:45:33;16.60;48.20
1337;DHT22;662;48.814;9.318;2023-02-22T15:47:59;16.50;48.40
1337;DHT22;662;48.814;9.318;2023-02-22T15:50:29;16.40;48.60
1337;DHT22;662;48.814;9.318;2023-02-22T15:53:04;16.40;48.90
1337;DHT22;662;48.814;9.318;2023-02-22T15:55:39;16.30;49.20
1337;DHT22;662;48.814;9.318;2023-02-22T15:58:20;16.20;49.30
1337;DHT22;662;48.814;9.318;2023-02-22T16:01:00;16.10;49.60
1337;DHT22;662;48.814;9.318;2023-02-22T16:03:30;16.00;49.70
1337;DHT22;662;48.814;9.318;2023-02-22T16:06:00;15.90;49.90
1337;DHT22;662;48.814;9.318;2023-02-22T16:11:08;15.70;50.20
1337;DHT22;662;48.814;9.318;2023-02-22T16:13:38;15.60;50.40
1337;DHT22;662;48.814;9.318;2023-02-22T16:18:47;15.50;50.80
1337;DHT22;662;48.814;9.318;2023-02-22T16:21:15;15.40;50.90
1337;DHT22;662;48.814;9.318;2023-02-22T16:23:44;15.40;51.10
1337;DHT22;662;48.814;9.318;2023-02-22T16:29:07;15.30;51.40
1337;DHT22;662;48.814;9.318;2023-02-22T16:31:35;15.20;51.60
1337;DHT22;662;48.814;9.318;2023-02-22T16:34:03;15.20;51.70
1337;DHT22;662;48.814;9.318;2023-02-22T16:36:45;15.10;51.80
1337;DHT22;662;48.814;9.318;2023-02-22T16:41:52;15.00;52.10
1337;DHT22;662;48.814;9.318;2023-02-22T16:44:19;15.00;52.20
1337;DHT22;662;48.814;9.318;2023-02-22T16:46:45;15.00;52.40
1337;DHT22;662;48.814;9.318;2023-02-22T16:49:11;14.90;52.40
1337;DHT22;662;48.814;9.318;2023-02-22T16:51:48;14.80;52.60
1337;DHT22;662;48.814;9.318;2023-02-22T16:54:22;14.80;52.70
1337;DHT22;662;48.814;9.318;2023-02-22T16:56:49;14.70;52.90
1337;DHT22;662;48.814;9.318;2023-02-22T16:59:16;14.70;53.20
1337;DHT22;662;48.814;9.318;2023-02-22T17:01:42;14.60;53.30
1337;DHT22;662;48.814;9.318;2023-02-22T17:04:20;14.60;53.30
1337;DHT22;662;48.814;9.318;2023-02-22T17:06:46;14.60;53.50
1337;DHT22;662;48.814;9.318;2023-02-22T17:09:17;14.50;53.50
1337;DHT22;662;48.814;9.318;2023-02-22T17:11:45;14.50;53.70
1337;DHT22;662;48.814;9.318;2023-02-22T17:14:16;14.40;53.90
1337;DHT22;662;48.814;9.318;2023-02-22T17:16:42;14.40;54.10
1337;DHT22;662;48.814;9.318;2023-02-22T17:19:18;14.30;54.10
1337;DHT22;662;48.814;9.318;2023-02-22T17:21:43;14.30;54.30
1337;DHT22;662;48.814;9.318;2023-02-22T17:24:12;14.30;54.50
1337;DHT22;662;48.814;9.318;2023-02-22T17:26:41;14.20;54.50
1337;DHT22;662;48.814;9.318;2023-02-22T17:29:07;14.20;54.70
1337;DHT22;662;48.814;9.318;2023-02-22T17:31:33;14.10;54.70
1337;DHT22;662;48.814;9.318;2023-02-22T17:34:02;14.10;54.90
1337;DHT22;662;48.814;9.318;2023-02-22T17:36:31;14.10;55.10
1337;DHT22;662;48.814;9.318;2023-02-22T17:38:58;14.00;55.10
1337;DHT22;662;48.814;9.318;2023-02-22T17:41:24;14.00;55.10
1337;DHT22;662;48.814;9.318;2023-02-22T17:43:50;14.00;55.20
1337;DHT22;662;48.814;9.318;2023-02-22T17:46:16;14.00;55.30
1337;DHT22;662;48.814;9.318;2023-02-22T17:48:44;13.90;55.30
1337;DHT22;662;48.814;9.318;2023-02-22T17:51:12;13.90;55.30
1337;DHT22;662;48.814;9.318;2023-02-22T17:53:38;13.90;55.40
1337;DHT22;662;48.814;9.318;2023-02-22T17:56:15;13.90;55.40
1337;DHT22;662;48.814;9.318;2023-02-22T17:58:43;13.80;55.40
1337;DHT22;662;48.814;9.318;2023-02-22T18:01:24;13.80;55.60
1337;DHT22;662;48.814;9.318;2023-02-22T18:03:52;13.80;55.60
1337;DHT22;662;48.814;9.318;2023-02-22T18:06:21;13.70;55.60
1337;DHT22;662;48.814;9.318;2023-02-22T18:08:51;13.70;55.70
1337;DHT22;662;48.814;9.318;2023-02-22T18:11:18;13.60;55.70
1337;DHT22;662;48.814;9.318;2023-02-22T18:13:45;13.70;55.80
1337;DHT22;662;48.814;9.318;2023-02-22T18:16:11;13.60;55.80
1337;DHT22;662;48.814;9.318;2023-02-22T18:18:36;13.60;55.90
1337;DHT22;662;48.814;9.318;2023-02-22T18:21:02;13.60;55.90
1337;DHT22;662;48.814;9.318;2023-02-22T18:23:30;13.60;56.00
1337;DHT22;662;48.814;9.318;2023-02-22T18:25:58;13.50;56.00
1337;DHT22;662;48.814;9.318;2023-02-22T18:28:24;13.50;56.00
1337;DHT22;662;48.814;9.318;2023-02-22T18:30:50;13.40;56.10
1337;DHT22;662;48.814;9.318;2023-02-22T18:33:16;13.40;56.20
1337;DHT22;662;48.814;9.318;2023-02-22T18:35:47;13.40;56.30
1337;DHT22;662;48.814;9.318;2023-02-22T18:38:19;13.30;56.30
1337;DHT22;662;48.814;9.318;2023-02-22T18:41:01;13.30;56.40
1337;DHT22;662;48.814;9.318;2023-02-22T18:43:27;13.20;56.50
1337;DHT22;662;48.814;9.318;2023-02-22T18:45:53;13.20;56.60
1337;DHT22;662;48.814;9.318;2023-02-22T18:48:19;13.10;56.60
1337;DHT22;662;48.814;9.318;2023-02-22T18:50:45;13.10;56.70
1337;DHT22;662;48.814;9.318;2023-02-22T18:53:10;13.10;56.80
1337;DHT22;662;48.814;9.318;2023-02-22T18:55:36;13.00;56.80
1337;DHT22;662;48.814;9.318;2023-02-22T18:58:02;13.00;57.40